createdAt,value
2022-08-23T00:00:51.809Z,17.95
2022-08-23T00:05:54.241Z,17.90
2022-08-23T00:10:55.515Z,18.18
2022-08-23T00:15:56.785Z,18.06
2022-08-23T00:20:58.024Z,17.93
2022-08-23T00:25:59.570Z,17.50
2022-08-23T00:31:00.839Z,17.64
2022-08-23T00:36:02.119Z,17.83
2022-08-23T00:41:03.410Z,17.68
2022-08-23T00:46:23.514Z,17.21
2022-08-23T00:51:24.797Z,17.17
2022-08-23T00:56:26.067Z,17.46
2022-08-23T01:01:29.152Z,17.40
2022-08-23T01:06:30.455Z,17.51
2022-08-23T01:11:33.177Z,17.32
2022-08-23T01:16:34.563Z,17.31
2022-08-23T01:21:36.579Z,17.32
2022-08-23T01:26:42.510Z,17.11
2022-08-23T01:31:43.755Z,17.16
2022-08-23T01:36:45.022Z,17.09
2022-08-23T01:41:46.278Z,17.09
2022-08-23T01:46:47.576Z,17.14
2022-08-23T01:51:48.842Z,16.70
2022-08-23T01:56:50.117Z,16.99
2022-08-23T02:01:51.422Z,16.69
2022-08-23T02:06:52.738Z,16.85
2022-08-23T02:11:54.789Z,16.65
2022-08-23T02:17:03.983Z,16.92
2022-08-23T02:22:06.014Z,16.64
2022-08-23T02:27:07.260Z,16.60
2022-08-23T02:32:09.703Z,16.79
2022-08-23T02:37:11.141Z,16.72
2022-08-23T02:42:12.401Z,17.44
2022-08-23T02:47:14.156Z,17.76
2022-08-23T02:52:15.394Z,17.81
2022-08-23T02:57:16.678Z,17.95
2022-08-23T03:02:17.966Z,17.91
2022-08-23T03:07:19.519Z,17.88
2022-08-23T03:12:20.794Z,17.90
2022-08-23T03:17:22.065Z,17.80
2022-08-23T03:22:23.397Z,17.79
2022-08-23T03:27:25.266Z,17.79
2022-08-23T03:32:26.551Z,17.67
2022-08-23T03:37:27.864Z,17.69
2022-08-23T03:42:31.247Z,17.68
2022-08-23T03:47:32.635Z,17.67
2022-08-23T03:52:33.886Z,17.71
2022-08-23T03:57:35.142Z,17.61
2022-08-23T04:02:36.454Z,17.51
2022-08-23T04:07:38.811Z,17.45
2022-08-23T04:12:40.069Z,17.38
2022-08-23T04:17:42.521Z,17.40
2022-08-23T04:22:44.618Z,17.26
2022-08-23T04:27:49.134Z,17.21
2022-08-23T04:32:50.677Z,16.54
2022-08-23T04:37:52.357Z,16.03
2022-08-23T04:42:53.645Z,15.85
2022-08-23T04:47:55.094Z,15.62
2022-08-23T04:52:56.389Z,15.39
2022-08-23T04:57:57.744Z,15.56
2022-08-23T05:02:59.042Z,14.99
2022-08-23T05:08:00.339Z,15.37
2022-08-23T05:13:01.695Z,15.61
2022-08-23T05:18:03.086Z,15.74
2022-08-23T05:23:04.427Z,15.85
2022-08-23T05:28:05.702Z,15.82
2022-08-23T05:33:07.095Z,15.70
2022-08-23T05:38:08.395Z,15.85
2022-08-23T05:43:09.646Z,15.98
2022-08-23T05:48:10.897Z,15.45
2022-08-23T05:53:12.337Z,15.83
2022-08-23T05:58:13.607Z,16.22
2022-08-23T06:03:15.021Z,16.51
2022-08-23T06:08:16.346Z,16.43
2022-08-23T06:13:17.690Z,16.62
2022-08-23T06:18:19.537Z,16.51
2022-08-23T06:23:20.785Z,16.36
2022-08-23T06:28:25.723Z,16.44
2022-08-23T06:33:27.600Z,16.09
2022-08-23T06:38:29.009Z,17.50
2022-08-23T06:43:30.490Z,18.09
2022-08-23T06:48:31.761Z,17.61
2022-08-23T06:53:33.337Z,17.66
2022-08-23T06:58:34.627Z,17.93
2022-08-23T07:03:36.536Z,18.00
2022-08-23T07:08:38.022Z,18.22
2022-08-23T07:13:39.893Z,18.50
2022-08-23T07:18:41.161Z,18.97
2022-08-23T07:23:46.444Z,18.95
2022-08-23T07:28:47.957Z,19.79
2022-08-23T07:33:49.327Z,20.31
2022-08-23T07:38:51.726Z,20.26
2022-08-23T07:43:53.069Z,20.31
2022-08-23T07:48:55.139Z,20.78
2022-08-23T07:53:56.571Z,20.09
2022-08-23T07:58:57.848Z,20.58
2022-08-23T08:03:59.133Z,20.94
2022-08-23T08:09:00.450Z,20.81
2022-08-23T08:14:01.729Z,20.79
2022-08-23T08:19:03.282Z,20.91
2022-08-23T08:24:04.890Z,20.74
2022-08-23T08:29:06.245Z,20.92
2022-08-23T08:34:07.822Z,21.39
2022-08-23T08:39:10.437Z,20.95
2022-08-23T08:44:15.786Z,21.61
2022-08-23T08:49:17.644Z,21.51
2022-08-23T08:54:18.962Z,21.52
2022-08-23T08:59:20.310Z,21.82
2022-08-23T09:04:22.544Z,21.75
2022-08-23T09:09:23.842Z,21.77
2022-08-23T09:14:25.100Z,21.83
2022-08-23T09:19:26.349Z,21.80
2022-08-23T09:24:27.691Z,21.73
2022-08-23T09:29:33.883Z,21.75
2022-08-23T09:34:36.315Z,22.22
2022-08-23T09:39:37.629Z,22.21
2022-08-23T09:44:39.276Z,22.68
2022-08-23T09:49:41.324Z,23.06
2022-08-23T09:54:46.927Z,23.11
2022-08-23T09:59:51.937Z,23.47
2022-08-23T10:04:53.276Z,24.03
2022-08-23T10:09:54.571Z,23.86
2022-08-23T10:20:32.478Z,24.72
2022-08-23T10:25:34.279Z,25.78
2022-08-23T10:30:35.552Z,24.90
2022-08-23T10:35:37.854Z,24.52
2022-08-23T10:40:39.434Z,24.94
2022-08-23T10:45:40.977Z,25.50
2022-08-23T10:50:44.640Z,25.96
2022-08-23T10:56:03.335Z,26.46
2022-08-23T11:01:04.715Z,26.88
2022-08-23T11:06:06.165Z,27.57
2022-08-23T11:11:07.456Z,27.22
2022-08-23T11:16:08.754Z,27.43
2022-08-23T11:21:10.114Z,27.52
2022-08-23T11:26:11.437Z,27.60
2022-08-23T11:31:12.803Z,27.87
2022-08-23T11:36:16.464Z,28.54
2022-08-23T11:41:17.850Z,27.95
2022-08-23T11:46:19.172Z,28.23
2022-08-23T11:51:21.125Z,28.31
2022-08-23T11:56:22.409Z,28.92
2022-08-23T12:01:23.679Z,29.13
2022-08-23T12:06:26.251Z,29.69
2022-08-23T12:11:27.518Z,30.36
2022-08-23T12:16:29.093Z,30.97
2022-08-23T12:21:30.430Z,30.49
2022-08-23T12:26:31.709Z,30.00
2022-08-23T12:31:33.521Z,29.03
2022-08-23T12:36:34.830Z,29.97
2022-08-23T12:41:37.541Z,29.96
2022-08-23T12:46:39.687Z,29.85
2022-08-23T12:51:41.080Z,30.01
2022-08-23T12:56:42.366Z,30.89
2022-08-23T13:01:43.655Z,31.16
2022-08-23T13:06:45.013Z,31.34
2022-08-23T13:11:46.437Z,30.43
2022-08-23T13:16:47.669Z,29.66
2022-08-23T13:21:52.185Z,30.39
2022-08-23T13:26:55.738Z,31.75
2022-08-23T13:32:02.575Z,32.37
2022-08-23T13:37:04.967Z,32.38
2022-08-23T13:42:06.313Z,31.86
2022-08-23T13:47:07.554Z,31.60
2022-08-23T13:52:45.488Z,31.56
2022-08-23T13:57:34.228Z,31.97
2022-08-23T14:02:50.190Z,31.33
2022-08-23T14:07:53.447Z,32.13
2022-08-23T14:12:54.822Z,32.05
2022-08-23T14:17:56.087Z,32.45
2022-08-23T14:22:57.534Z,31.45
2022-08-23T14:28:02.507Z,31.91
2022-08-23T14:33:03.993Z,32.21
2022-08-23T14:38:11.130Z,32.24
2022-08-23T14:43:12.531Z,32.61
2022-08-23T14:48:13.925Z,31.55
2022-08-23T14:53:15.229Z,31.72
2022-08-23T14:58:16.549Z,31.33
2022-08-23T15:03:18.014Z,31.91
2022-08-23T15:08:19.717Z,31.73
2022-08-23T15:13:29.810Z,31.93
2022-08-23T15:18:34.742Z,31.61
2022-08-23T15:23:36.054Z,31.75
2022-08-23T15:28:37.362Z,32.06
2022-08-23T15:33:38.721Z,32.34
2022-08-23T15:38:40.011Z,32.69
2022-08-23T15:43:42.133Z,32.89
2022-08-23T15:48:43.636Z,32.93
2022-08-23T15:53:44.987Z,32.99
2022-08-23T15:58:46.275Z,32.65
2022-08-23T16:03:48.134Z,32.38
2022-08-23T16:08:49.361Z,31.15
2022-08-23T16:13:53.670Z,30.03
2022-08-23T16:18:57.920Z,29.82
2022-08-23T16:23:59.272Z,29.58
2022-08-23T16:29:00.549Z,29.51
2022-08-23T16:34:03.812Z,30.10
2022-08-23T16:39:05.123Z,30.46
2022-08-23T16:44:06.396Z,30.07
2022-08-23T16:49:07.656Z,30.13
2022-08-23T16:54:08.957Z,29.92
2022-08-23T16:59:10.221Z,29.79
2022-08-23T17:04:12.576Z,30.10
2022-08-23T17:09:13.857Z,30.06
2022-08-23T17:14:15.247Z,29.80
2022-08-23T17:19:16.603Z,29.58
2022-08-23T17:24:18.009Z,29.43
2022-08-23T17:29:20.333Z,29.15
2022-08-23T17:34:21.742Z,28.54
2022-08-23T17:39:23.039Z,28.21
2022-08-23T17:44:24.334Z,27.86
2022-08-23T17:49:25.758Z,27.41
2022-08-23T17:54:27.010Z,27.08
2022-08-23T17:59:28.303Z,26.95
2022-08-23T18:04:29.649Z,26.83
2022-08-23T18:09:30.938Z,26.74
2022-08-23T18:14:32.211Z,26.64
2022-08-23T18:19:33.716Z,26.36
2022-08-23T18:24:35.003Z,25.99
2022-08-23T18:29:36.267Z,25.81
2022-08-23T18:34:37.551Z,25.18
2022-08-23T18:39:38.799Z,25.45
2022-08-23T18:44:40.061Z,25.37
2022-08-23T18:49:42.250Z,25.00
2022-08-23T18:54:43.647Z,24.79
2022-08-23T18:59:44.943Z,24.75
2022-08-23T19:04:46.269Z,24.73
2022-08-23T19:09:47.627Z,24.57
2022-08-23T19:14:48.974Z,24.53
2022-08-23T19:19:50.622Z,24.11
2022-08-23T19:24:51.901Z,23.86
2022-08-23T19:29:53.801Z,23.71
2022-08-23T19:34:55.061Z,23.69
2022-08-23T19:39:56.345Z,23.58
2022-08-23T19:44:57.734Z,23.45
2022-08-23T19:49:58.993Z,23.40
2022-08-23T19:55:05.260Z,22.81
2022-08-23T20:00:10.405Z,22.76
2022-08-23T20:05:11.659Z,23.00
2022-08-23T20:10:12.959Z,22.92
2022-08-23T20:15:14.463Z,22.21
2022-08-23T20:20:15.729Z,22.05
2022-08-23T20:25:17.092Z,22.43
2022-08-23T20:30:18.523Z,22.40
2022-08-23T20:35:19.819Z,22.36
2022-08-23T20:40:21.921Z,22.53
2022-08-23T20:45:23.629Z,22.26
2022-08-23T20:50:25.438Z,21.84
2022-08-23T20:55:28.218Z,21.63
2022-08-23T21:00:29.484Z,21.97
2022-08-23T21:05:30.737Z,22.11
2022-08-23T21:10:32.015Z,21.76
2022-08-23T21:15:33.301Z,21.41
2022-08-23T21:20:34.566Z,21.70
2022-08-23T21:25:35.843Z,21.73
2022-08-23T21:30:37.099Z,20.84
2022-08-23T21:35:38.372Z,21.09
2022-08-23T21:40:39.618Z,20.89
2022-08-23T21:45:41.732Z,21.14
2022-08-23T21:50:45.200Z,20.95
2022-08-23T21:55:46.571Z,20.60
2022-08-23T22:00:47.898Z,20.43
2022-08-23T22:05:49.216Z,20.44
2022-08-23T22:10:52.198Z,20.69
2022-08-23T22:16:01.368Z,20.84
2022-08-23T22:21:05.406Z,20.54
2022-08-23T22:26:09.493Z,20.04
2022-08-23T22:31:12.886Z,20.17
2022-08-23T22:36:14.225Z,20.32
2022-08-23T22:41:15.664Z,20.40
2022-08-23T22:46:16.993Z,20.06
2022-08-23T22:51:18.377Z,19.77
2022-08-23T22:56:19.985Z,20.08
2022-08-23T23:01:21.835Z,20.13
2022-08-23T23:06:23.877Z,19.87
2022-08-23T23:11:25.122Z,19.99
2022-08-23T23:16:26.445Z,20.09
2022-08-23T23:21:27.769Z,20.13
2022-08-23T23:26:29.522Z,19.86
2022-08-23T23:31:30.779Z,19.47
2022-08-23T23:36:32.089Z,19.67
2022-08-23T23:41:33.374Z,19.76
2022-08-23T23:46:35.846Z,19.63
2022-08-23T23:51:37.394Z,19.24
2022-08-23T23:56:38.846Z,19.23
